Time;durP1;ratioP1;P1;durP2;ratioP2;P2;SDS_P1;SDS_P2;PMS_P1;PMS_P2;Temp;Humidity;BMP_temperature;BMP_pressure;BME280_temperature;BME280_humidity;BME280_pressure;Samples;Min_cycle;Max_cycle;Signal;HPM_P1;HPM_P2
2023/01/17 04:23:00;;;;;;;1999.90;999.90;;;;;;;;;;5788718;23;20331;-70
2023/01/17 04:25:45;;;;;;;1999.90;999.90;;;;;;;;;;4964685;28;20509;-70
2023/01/17 04:28:30;;;;;;;1999.90;999.90;;;;;;;;;;4971978;28;20724;-69
2023/01/17 04:31:16;;;;;;;1999.90;999.90;;;;;;;;;;4963485;28;20232;-69
2023/01/17 04:34:01;;;;;;;1999.90;999.90;;;;;;;;;;4958480;28;20787;-65
2023/01/17 04:36:46;;;;;;;1999.90;999.90;;;;;;;;;;4935545;29;20752;-70
2023/01/17 04:39:32;;;;;;;1999.90;999.90;;;;;;;;;;4935757;29;20314;-69
2023/01/17 04:42:17;;;;;;;1999.90;999.90;;;;;;;;;;4934863;29;20296;-69
2023/01/17 04:45:02;;;;;;;1999.90;999.90;;;;;;;;;;4935410;29;20217;-69
2023/01/17 04:47:47;;;;;;;1999.90;999.90;;;;;;;;;;4946595;29;20695;-69
2023/01/17 04:50:32;;;;;;;1999.90;999.90;;;;;;;;;;4954538;29;20315;-69
2023/01/17 04:53:17;;;;;;;1999.90;999.90;;;;;;;;;;4954637;28;20773;-69
2023/01/17 04:56:04;;;;;;;1999.90;999.90;;;;;;;;;;4954329;29;20263;-69
2023/01/17 04:58:48;;;;;;;1999.90;999.90;;;;;;;;;;4951292;28;20216;-70
2023/01/17 05:01:33;;;;;;;1999.90;999.90;;;;;;;;;;4934931;29;20329;-69
2023/01/17 05:04:18;;;;;;;1999.90;999.90;;;;;;;;;;4934736;29;20225;-68
2023/01/17 05:07:03;;;;;;;1999.90;999.90;;;;;;;;;;4935257;29;20208;-69
2023/01/17 05:09:48;;;;;;;1999.90;999.90;;;;;;;;;;4934736;29;20341;-69
2023/01/17 05:12:35;;;;;;;1999.90;999.90;;;;;;;;;;4935083;29;20647;-70
2023/01/17 05:15:19;;;;;;;1999.90;999.90;;;;;;;;;;4934877;29;20217;-69
2023/01/17 05:18:07;;;;;;;1999.90;999.90;;;;;;;;;;4935188;29;20274;-69
2023/01/17 05:20:52;;;;;;;1999.90;999.90;;;;;;;;;;4935053;29;20229;-69
2023/01/17 05:23:37;;;;;;;1999.90;999.90;;;;;;;;;;4940481;29;20236;-70
2023/01/17 05:26:22;;;;;;;1999.90;999.90;;;;;;;;;;4953916;29;20204;-69
2023/01/17 05:29:09;;;;;;;1999.90;999.90;;;;;;;;;;4954326;29;20213;-69
2023/01/17 05:31:54;;;;;;;1999.90;999.90;;;;;;;;;;4953863;29;20247;-69
2023/01/17 05:34:39;;;;;;;1999.90;999.90;;;;;;;;;;4953318;29;20897;-70
2023/01/17 05:37:24;;;;;;;1999.90;999.90;;;;;;;;;;4953995;29;20212;-69
2023/01/17 05:40:09;;;;;;;1999.90;999.90;;;;;;;;;;4946864;29;20430;-70
2023/01/17 05:42:55;;;;;;;1999.90;999.90;;;;;;;;;;4954125;28;20298;-66
2023/01/17 05:45:41;;;;;;;1999.90;999.90;;;;;;;;;;4953579;29;20766;-68
2023/01/17 05:48:27;;;;;;;1999.90;999.90;;;;;;;;;;4954060;29;20419;-67
2023/01/17 05:51:11;;;;;;;1999.90;999.90;;;;;;;;;;4953601;29;20224;-69
2023/01/17 05:53:56;;;;;;;1999.90;999.90;;;;;;;;;;4953036;28;20241;-70
2023/01/17 05:56:41;;;;;;;1999.90;999.90;;;;;;;;;;4938134;29;20706;-69
2023/01/17 05:59:26;;;;;;;1999.90;999.90;;;;;;;;;;4946465;29;20212;-65
2023/01/17 06:02:13;;;;;;;1999.90;999.90;;;;;;;;;;4947521;29;20209;-67
2023/01/17 06:04:58;;;;;;;1999.90;999.90;;;;;;;;;;4942158;29;20212;-69
2023/01/17 06:07:44;;;;;;;1999.90;999.90;;;;;;;;;;4952391;29;20567;-70
2023/01/17 06:10:29;;;;;;;1999.90;999.90;;;;;;;;;;4950749;29;20228;-70
2023/01/17 06:13:19;;;;;;;1999.90;999.90;;;;;;;;;;4951591;28;21028;-70
2023/01/17 06:16:04;;;;;;;1999.90;999.90;;;;;;;;;;4953247;29;20212;-70
2023/01/17 06:18:51;;;;;;;1999.90;999.90;;;;;;;;;;4947143;29;20280;-72
2023/01/17 06:21:36;;;;;;;1999.90;999.90;;;;;;;;;;4938725;29;20896;-70
2023/01/17 06:24:21;;;;;;;1999.90;999.90;;;;;;;;;;4956982;28;20240;-72
2023/01/17 06:27:08;;;;;;;1999.90;999.90;;;;;;;;;;4957360;29;20503;-73
2023/01/17 06:29:53;;;;;;;1999.90;999.90;;;;;;;;;;4957335;29;20285;-70
2023/01/17 06:32:38;;;;;;;1999.90;999.90;;;;;;;;;;4957243;28;20595;-72
2023/01/17 06:35:24;;;;;;;1999.90;999.90;;;;;;;;;;4956845;29;20208;-72
2023/01/17 06:38:09;;;;;;;1999.90;999.90;;;;;;;;;;4957099;29;20210;-72
2023/01/17 06:40:55;;;;;;;1999.90;999.90;;;;;;;;;;4957133;29;20204;-72
2023/01/17 06:43:40;;;;;;;1999.90;999.90;;;;;;;;;;4957009;28;20248;-72
2023/01/17 06:46:25;;;;;;;1999.90;999.90;;;;;;;;;;4956714;29;20576;-72
2023/01/17 06:49:10;;;;;;;1999.90;999.90;;;;;;;;;;4937757;29;20410;-72
2023/01/17 06:51:57;;;;;;;1999.90;999.90;;;;;;;;;;4937699;29;20470;-72
2023/01/17 06:54:41;;;;;;;1999.90;999.90;;;;;;;;;;4936341;29;20410;-72
2023/01/17 06:57:26;;;;;;;1999.90;999.90;;;;;;;;;;4937610;29;20209;-72
2023/01/17 07:00:12;;;;;;;1999.90;999.90;;;;;;;;;;4937334;29;20213;-72
2023/01/17 07:02:57;;;;;;;1999.90;999.90;;;;;;;;;;4937362;29;20226;-72
2023/01/17 07:05:42;;;;;;;1999.90;999.90;;;;;;;;;;4937289;29;20216;-73
2023/01/17 07:08:29;;;;;;;1999.90;999.90;;;;;;;;;;4937328;29;20595;-72
2023/01/17 07:11:14;;;;;;;1999.90;999.90;;;;;;;;;;4937363;29;20590;-72
2023/01/17 07:13:59;;;;;;;1999.90;999.90;;;;;;;;;;4937180;29;20446;-72
2023/01/17 07:16:44;;;;;;;1999.90;999.90;;;;;;;;;;4937287;29;20211;-71
2023/01/17 07:19:30;;;;;;;1999.90;999.90;;;;;;;;;;4937104;29;20230;-72
2023/01/17 07:22:14;;;;;;;1999.90;999.90;;;;;;;;;;4937069;29;20292;-72
2023/01/17 07:25:01;;;;;;;1999.90;999.90;;;;;;;;;;4937247;29;20219;-72
2023/01/17 07:27:46;;;;;;;1999.90;999.90;;;;;;;;;;4937018;29;20213;-72
2023/01/17 07:30:31;;;;;;;1999.90;999.90;;;;;;;;;;4937093;29;20379;-72
2023/01/17 07:33:16;;;;;;;1999.90;999.90;;;;;;;;;;4936393;29;20277;-72
2023/01/17 07:36:02;;;;;;;1999.90;999.90;;;;;;;;;;4936820;29;20206;-71
2023/01/17 07:38:47;;;;;;;1999.90;999.90;;;;;;;;;;4936888;29;20205;-72
2023/01/17 07:41:39;;;;;;;1999.90;999.90;;;;;;;;;;4936897;29;20253;-72
2023/01/17 07:44:25;;;;;;;1999.90;999.90;;;;;;;;;;4936413;29;20225;-72
2023/01/17 07:47:09;;;;;;;1999.90;999.90;;;;;;;;;;4940862;29;20693;-72
2023/01/17 07:49:54;;;;;;;1999.90;999.90;;;;;;;;;;4955714;29;20208;-72
2023/01/17 07:52:39;;;;;;;1999.90;999.90;;;;;;;;;;4955348;28;20371;-72
2023/01/17 07:55:24;;;;;;;1999.90;999.90;;;;;;;;;;4955338;29;20204;-71
2023/01/17 07:58:11;;;;;;;1999.90;999.90;;;;;;;;;;4955723;29;20260;-72
2023/01/17 08:01:00;;;;;;;1999.90;999.90;;;;;;;;;;4954204;29;20631;-72
2023/01/17 08:03:46;;;;;;;1999.90;999.90;;;;;;;;;;4944933;29;20330;-71
2023/01/17 08:06:30;;;;;;;1999.90;999.90;;;;;;;;;;4946351;29;20288;-71
2023/01/17 08:09:15;;;;;;;1999.90;999.90;;;;;;;;;;4936209;29;20293;-71
2023/01/17 08:12:00;;;;;;;1999.90;999.90;;;;;;;;;;4936275;29;20229;-71
2023/01/17 08:14:47;;;;;;;1999.90;999.90;;;;;;;;;;4936077;29;20423;-72
2023/01/17 08:17:31;;;;;;;1999.90;999.90;;;;;;;;;;4936156;29;20205;-72
2023/01/17 08:20:17;;;;;;;1999.90;999.90;;;;;;;;;;4939846;29;20434;-72
2023/01/17 08:23:02;;;;;;;1999.90;999.90;;;;;;;;;;4951464;28;20239;-72
2023/01/17 08:25:47;;;;;;;1999.90;999.90;;;;;;;;;;4946564;29;20767;-73
2023/01/17 08:28:32;;;;;;;1999.90;999.90;;;;;;;;;;4935547;29;20428;-73
2023/01/17 08:31:18;;;;;;;1999.90;999.90;;;;;;;;;;4935953;28;20411;-73
2023/01/17 08:34:04;;;;;;;1999.90;999.90;;;;;;;;;;4954604;28;20232;-72
2023/01/17 08:36:51;;;;;;;1999.90;999.90;;;;;;;;;;4954126;29;20313;-72
2023/01/17 08:39:36;;;;;;;1999.90;999.90;;;;;;;;;;4954934;29;20213;-72
2023/01/17 08:42:21;;;;;;;1999.90;999.90;;;;;;;;;;4954600;28;20804;-73
2023/01/17 08:45:08;;;;;;;1999.90;999.90;;;;;;;;;;4952903;29;20216;-73
2023/01/17 08:47:54;;;;;;;1999.90;999.90;;;;;;;;;;4954596;29;20423;-73
2023/01/17 08:50:39;;;;;;;1999.90;999.90;;;;;;;;;;4954573;29;20212;-73
2023/01/17 08:53:24;;;;;;;1999.90;999.90;;;;;;;;;;4955262;28;20473;-73
2023/01/17 08:56:10;;;;;;;1999.90;999.90;;;;;;;;;;4953545;28;20235;-72
2023/01/17 08:58:55;;;;;;;1999.90;999.90;;;;;;;;;;4953725;29;20324;-72
2023/01/17 09:01:44;;;;;;;1999.90;999.90;;;;;;;;;;4951938;29;20403;-72
2023/01/17 09:04:30;;;;;;;1999.90;999.90;;;;;;;;;;4954669;29;20216;-73
2023/01/17 09:07:16;;;;;;;1999.90;999.90;;;;;;;;;;4954830;29;20329;-73
2023/01/17 09:10:01;;;;;;;1999.90;999.90;;;;;;;;;;4952895;29;20295;-72
2023/01/17 09:12:45;;;;;;;1999.90;999.90;;;;;;;;;;4954603;28;20236;-73
2023/01/17 09:15:30;;;;;;;1999.90;999.90;;;;;;;;;;4954027;29;20211;-73
2023/01/17 09:18:15;;;;;;;1999.90;999.90;;;;;;;;;;4935032;29;20584;-72
2023/01/17 09:21:09;;;;;;;1999.90;999.90;;;;;;;;;;4935129;29;20217;-73
2023/01/17 09:23:54;;;;;;;1999.90;999.90;;;;;;;;;;4934525;29;20723;-72
2023/01/17 09:26:39;;;;;;;1999.90;999.90;;;;;;;;;;4953300;29;20204;-73
2023/01/17 09:29:24;;;;;;;1999.90;999.90;;;;;;;;;;4954099;29;20208;-72
2023/01/17 09:32:09;;;;;;;1999.90;999.90;;;;;;;;;;4953317;28;20364;-73
2023/01/17 09:34:56;;;;;;;1999.90;999.90;;;;;;;;;;4953620;29;20257;-73
2023/01/17 09:37:42;;;;;;;1999.90;999.90;;;;;;;;;;4953690;29;20199;-73
2023/01/17 09:40:27;;;;;;;1999.90;999.90;;;;;;;;;;4953542;29;20731;-74
2023/01/17 09:43:18;;;;;;;1999.90;999.90;;;;;;;;;;4952780;28;20232;-74
2023/01/17 09:46:04;;;;;;;1999.90;999.90;;;;;;;;;;4951227;29;20208;-73
2023/01/17 09:48:51;;;;;;;1999.90;999.90;;;;;;;;;;4934368;29;20217;-74
2023/01/17 09:51:36;;;;;;;1999.90;999.90;;;;;;;;;;4943531;29;20292;-73
2023/01/17 09:54:24;;;;;;;1999.90;999.90;;;;;;;;;;4952541;28;20229;-74
2023/01/17 09:57:16;;;;;;;1999.90;999.90;;;;;;;;;;4955959;29;20591;-73
2023/01/17 10:00:05;;;;;;;1999.90;999.90;;;;;;;;;;4948475;28;20208;-73
2023/01/17 10:02:56;;;;;;;1999.90;999.90;;;;;;;;;;4966394;28;20261;-72
2023/01/17 10:05:49;;;;;;;1999.90;999.90;;;;;;;;;;4957040;29;20780;-73
2023/01/17 10:08:42;;;;;;;1999.90;999.90;;;;;;;;;;4957441;29;20204;-73
2023/01/17 10:11:34;;;;;;;1999.90;999.90;;;;;;;;;;4957337;29;20597;-73
2023/01/17 10:14:36;;;;;;;1999.90;999.90;;;;;;;;;;4937527;29;20241;-72
2023/01/17 10:17:26;;;;;;;1999.90;999.90;;;;;;;;;;4952892;29;20584;-73
2023/01/17 10:20:16;;;;;;;1999.90;999.90;;;;;;;;;;4957528;29;20213;-73
2023/01/17 10:23:06;;;;;;;1999.90;999.90;;;;;;;;;;4956501;28;20958;-74
2023/01/17 10:25:52;;;;;;;1999.90;999.90;;;;;;;;;;4956648;29;20200;-73
2023/01/17 10:28:41;;;;;;;1999.90;999.90;;;;;;;;;;4957231;29;20213;-73
2023/01/17 10:31:27;;;;;;;1999.90;999.90;;;;;;;;;;4956639;29;20691;-73
2023/01/17 10:34:13;;;;;;;1999.90;999.90;;;;;;;;;;4956838;28;20236;-73
2023/01/17 10:37:00;;;;;;;1999.90;999.90;;;;;;;;;;4957150;29;20212;-74
2023/01/17 10:39:47;;;;;;;1999.90;999.90;;;;;;;;;;4955633;29;20512;-74
2023/01/17 10:42:37;;;;;;;1999.90;999.90;;;;;;;;;;4957028;28;20311;-72
2023/01/17 10:45:27;;;;;;;1999.90;999.90;;;;;;;;;;4956515;29;20200;-74
2023/01/17 10:48:15;;;;;;;1999.90;999.90;;;;;;;;;;4957078;29;20268;-74
2023/01/17 10:51:09;;;;;;;1999.90;999.90;;;;;;;;;;4956527;29;20208;-74
2023/01/17 10:54:03;;;;;;;1999.90;999.90;;;;;;;;;;4955707;28;20220;-71
2023/01/17 10:56:49;;;;;;;1999.90;999.90;;;;;;;;;;4956731;29;20212;-73
2023/01/17 10:59:36;;;;;;;1999.90;999.90;;;;;;;;;;4955987;29;20216;-72
2023/01/17 11:02:24;;;;;;;1999.90;999.90;;;;;;;;;;4953396;28;20575;-71
2023/01/17 11:05:13;;;;;;;1999.90;999.90;;;;;;;;;;4955293;29;20220;-72
2023/01/17 11:08:02;;;;;;;1999.90;999.90;;;;;;;;;;4955482;28;20353;-73
2023/01/17 11:10:49;;;;;;;1999.90;999.90;;;;;;;;;;4956007;29;20349;-72
2023/01/17 11:13:36;;;;;;;1999.90;999.90;;;;;;;;;;4954558;28;20236;-72
2023/01/17 11:16:23;;;;;;;1999.90;999.90;;;;;;;;;;4955944;29;20268;-71
2023/01/17 11:19:15;;;;;;;1999.90;999.90;;;;;;;;;;4954859;29;20294;-72
2023/01/17 11:22:03;;;;;;;1999.90;999.90;;;;;;;;;;4953182;29;20209;-72
2023/01/17 11:24:49;;;;;;;1999.90;999.90;;;;;;;;;;4955743;29;20216;-73
2023/01/17 11:27:36;;;;;;;1999.90;999.90;;;;;;;;;;4955652;29;20289;-73
2023/01/17 11:30:24;;;;;;;1999.90;999.90;;;;;;;;;;4955654;29;20212;-72
2023/01/17 11:33:28;;;;;;;1999.90;999.90;;;;;;;;;;4955159;28;20806;-73
2023/01/17 11:36:19;;;;;;;1999.90;999.90;;;;;;;;;;4953902;29;20583;-72
2023/01/17 11:39:05;;;;;;;1999.90;999.90;;;;;;;;;;4956023;29;20318;-72
2023/01/17 11:41:51;;;;;;;1999.90;999.90;;;;;;;;;;4955391;29;20704;-72
2023/01/17 11:44:36;;;;;;;1999.90;999.90;;;;;;;;;;4955209;29;20209;-73
2023/01/17 11:47:21;;;;;;;1999.90;999.90;;;;;;;;;;4955775;29;20212;-72
2023/01/17 11:50:21;;;;;;;1999.90;999.90;;;;;;;;;;4954616;29;20784;-72
2023/01/17 11:53:14;;;;;;;1999.90;999.90;;;;;;;;;;4956043;28;20248;-72
2023/01/17 11:56:03;;;;;;;1999.90;999.90;;;;;;;;;;4955518;29;20204;-72
2023/01/17 11:58:49;;;;;;;1999.90;999.90;;;;;;;;;;4954570;29;20208;-72
2023/01/17 12:01:37;;;;;;;1999.90;999.90;;;;;;;;;;4954520;29;20208;-72
2023/01/17 12:04:24;;;;;;;1999.90;999.90;;;;;;;;;;4954155;28;20307;-73
2023/01/17 12:07:17;;;;;;;1999.90;999.90;;;;;;;;;;4954091;29;20207;-71
2023/01/17 12:10:07;;;;;;;1999.90;999.90;;;;;;;;;;4935932;29;20212;-71
2023/01/17 12:19:26;;;;;;;1999.90;999.90;;;;;;;;;;4950106;28;20963;-70
2023/01/17 12:22:20;;;;;;;1999.90;999.90;;;;;;;;;;4950107;28;20857;-72
2023/01/17 12:25:16;;;;;;;1999.90;999.90;;;;;;;;;;4953386;29;20208;-73
2023/01/17 12:28:11;;;;;;;1999.90;999.90;;;;;;;;;;4951939;29;20209;-72
2023/01/17 12:31:03;;;;;;;1999.90;999.90;;;;;;;;;;4950891;29;20675;-73
2023/01/17 12:33:50;;;;;;;1999.90;999.90;;;;;;;;;;4952361;28;20247;-72
2023/01/17 12:36:39;;;;;;;1999.90;999.90;;;;;;;;;;4951454;29;20220;-73
2023/01/17 12:39:27;;;;;;;1999.90;999.90;;;;;;;;;;4951927;29;20208;-73
2023/01/17 12:42:17;;;;;;;1999.90;999.90;;;;;;;;;;4946352;28;20255;-73
2023/01/17 12:45:05;;;;;;;1999.90;999.90;;;;;;;;;;4950966;29;20221;-72
2023/01/17 12:47:53;;;;;;;1999.90;999.90;;;;;;;;;;4952590;29;20208;-73
2023/01/17 12:50:40;;;;;;;1999.90;999.90;;;;;;;;;;4949585;29;20209;-73
2023/01/17 12:53:29;;;;;;;1999.90;999.90;;;;;;;;;;4948112;28;20304;-73
2023/01/17 12:56:16;;;;;;;1999.90;999.90;;;;;;;;;;4948857;29;20220;-72
2023/01/17 12:59:06;;;;;;;1999.90;999.90;;;;;;;;;;4950715;29;20208;-73
2023/01/17 13:01:57;;;;;;;1999.90;999.90;;;;;;;;;;4952114;29;20300;-72
2023/01/17 13:04:45;;;;;;;1999.90;999.90;;;;;;;;;;4952016;29;20600;-72
2023/01/17 13:07:35;;;;;;;1999.90;999.90;;;;;;;;;;4954723;29;20205;-73
2023/01/17 13:10:30;;;;;;;1999.90;999.90;;;;;;;;;;4953275;29;20204;-73
2023/01/17 13:13:19;;;;;;;1999.90;999.90;;;;;;;;;;4953327;28;20225;-73
2023/01/17 13:16:11;;;;;;;1999.90;999.90;;;;;;;;;;4954685;29;20215;-71
2023/01/17 13:18:57;;;;;;;1999.90;999.90;;;;;;;;;;4952110;29;20313;-72
2023/01/17 13:21:42;;;;;;;1999.90;999.90;;;;;;;;;;4948054;29;20239;-70
2023/01/17 13:24:35;;;;;;;1999.90;999.90;;;;;;;;;;4949099;28;20328;-71
2023/01/17 13:27:32;;;;;;;1999.90;999.90;;;;;;;;;;4951012;29;20420;-73
2023/01/17 13:30:27;;;;;;;1999.90;999.90;;;;;;;;;;4952661;28;20212;-72
2023/01/17 13:33:27;;;;;;;1999.90;999.90;;;;;;;;;;4952541;28;20228;-72
2023/01/17 13:36:20;;;;;;;1999.90;999.90;;;;;;;;;;4947017;29;20690;-71
2023/01/17 13:39:11;;;;;;;1999.90;999.90;;;;;;;;;;4951784;28;20209;-72
2023/01/17 13:42:02;;;;;;;1999.90;999.90;;;;;;;;;;4952526;29;20646;-70
2023/01/17 13:44:48;;;;;;;1999.90;999.90;;;;;;;;;;4951920;29;20248;-71
2023/01/17 13:47:39;;;;;;;1999.90;999.90;;;;;;;;;;4948546;29;20330;-72
2023/01/17 13:50:47;;;;;;;1999.90;999.90;;;;;;;;;;4953813;29;20773;-72
2023/01/17 13:53:56;;;;;;;1999.90;999.90;;;;;;;;;;4946003;28;20231;-72
2023/01/17 13:56:41;;;;;;;1999.90;999.90;;;;;;;;;;4950567;29;20528;-72
2023/01/17 13:59:28;;;;;;;1999.90;999.90;;;;;;;;;;4955222;29;20296;-73
2023/01/17 14:02:27;;;;;;;1999.90;999.90;;;;;;;;;;4952819;28;20405;-73
2023/01/17 14:05:15;;;;;;;1999.90;999.90;;;;;;;;;;4959694;28;20228;-74
2023/01/17 14:08:02;;;;;;;1999.90;999.90;;;;;;;;;;4952920;29;20217;-72
2023/01/17 14:10:48;;;;;;;1999.90;999.90;;;;;;;;;;4953884;29;20706;-72
2023/01/17 14:13:34;;;;;;;1999.90;999.90;;;;;;;;;;4953253;28;20719;-71
2023/01/17 14:16:27;;;;;;;1999.90;999.90;;;;;;;;;;4953200;29;20208;-72
2023/01/17 14:19:24;;;;;;;1999.90;999.90;;;;;;;;;;4955917;29;20284;-72
2023/01/17 14:22:14;;;;;;;1999.90;999.90;;;;;;;;;;4953336;28;20216;-72
2023/01/17 14:25:02;;;;;;;1999.90;999.90;;;;;;;;;;4949802;29;20209;-72
2023/01/17 14:27:48;;;;;;;1999.90;999.90;;;;;;;;;;4953480;29;20283;-72
2023/01/17 14:30:35;;;;;;;1999.90;999.90;;;;;;;;;;4949899;29;20701;-72
2023/01/17 14:33:25;;;;;;;1999.90;999.90;;;;;;;;;;4953005;28;20228;-72
2023/01/17 14:36:18;;;;;;;1999.90;999.90;;;;;;;;;;4952298;29;20209;-72
2023/01/17 14:39:03;;;;;;;1999.90;999.90;;;;;;;;;;4939469;29;20307;-72
2023/01/17 14:41:49;;;;;;;1999.90;999.90;;;;;;;;;;4939486;29;21616;-72
2023/01/17 14:44:35;;;;;;;1999.90;999.90;;;;;;;;;;4950185;29;20227;-71
2023/01/17 14:47:21;;;;;;;1999.90;999.90;;;;;;;;;;4940212;29;20673;-73
2023/01/17 14:50:09;;;;;;;1999.90;999.90;;;;;;;;;;4937095;29;20217;-72
2023/01/17 14:53:07;;;;;;;1999.90;999.90;;;;;;;;;;4941200;29;20775;-73
2023/01/17 14:55:53;;;;;;;1999.90;999.90;;;;;;;;;;4954097;29;20208;-71
2023/01/17 14:58:41;;;;;;;1999.90;999.90;;;;;;;;;;4954896;29;20437;-72
2023/01/17 15:01:26;;;;;;;1999.90;999.90;;;;;;;;;;4954360;29;20340;-72
2023/01/17 15:04:21;;;;;;;1999.90;999.90;;;;;;;;;;4954000;28;20589;-72
2023/01/17 15:07:06;;;;;;;1999.90;999.90;;;;;;;;;;4956592;29;20201;-72
2023/01/17 15:09:51;;;;;;;1999.90;999.90;;;;;;;;;;4956346;29;20280;-73
2023/01/17 15:12:37;;;;;;;1999.90;999.90;;;;;;;;;;4955789;28;20356;-72
2023/01/17 15:15:28;;;;;;;1999.90;999.90;;;;;;;;;;4955422;29;20213;-73
2023/01/17 15:18:18;;;;;;;1999.90;999.90;;;;;;;;;;4955750;29;20208;-73
2023/01/17 15:21:04;;;;;;;1999.90;999.90;;;;;;;;;;4956369;29;20208;-72
2023/01/17 15:23:51;;;;;;;1999.90;999.90;;;;;;;;;;4955769;28;20236;-72
2023/01/17 15:26:38;;;;;;;1999.90;999.90;;;;;;;;;;4956001;29;20695;-72
2023/01/17 15:29:24;;;;;;;1999.90;999.90;;;;;;;;;;4954671;29;20265;-72
2023/01/17 15:32:17;;;;;;;1999.90;999.90;;;;;;;;;;4955430;28;20212;-72
2023/01/17 15:35:05;;;;;;;1999.90;999.90;;;;;;;;;;4954529;29;20483;-72
2023/01/17 15:37:52;;;;;;;1999.90;999.90;;;;;;;;;;4955371;29;20208;-72
2023/01/17 15:40:42;;;;;;;1999.90;999.90;;;;;;;;;;4956592;29;20205;-73
2023/01/17 15:43:34;;;;;;;1999.90;999.90;;;;;;;;;;4956738;28;20244;-72
2023/01/17 15:46:21;;;;;;;1999.90;999.90;;;;;;;;;;4957383;29;20679;-72
2023/01/17 15:49:18;;;;;;;1999.90;999.90;;;;;;;;;;4938258;29;20221;-71
2023/01/17 15:52:12;;;;;;;1999.90;999.90;;;;;;;;;;4945355;29;20213;-73
2023/01/17 15:54:58;;;;;;;1999.90;999.90;;;;;;;;;;4957950;29;20255;-73
2023/01/17 15:57:46;;;;;;;1999.90;999.90;;;;;;;;;;4955666;29;20217;-72
2023/01/17 16:00:37;;;;;;;1999.90;999.90;;;;;;;;;;4951785;29;20205;-73
2023/01/17 16:03:23;;;;;;;1999.90;999.90;;;;;;;;;;4943737;29;20290;-73
2023/01/17 16:06:27;;;;;;;1999.90;999.90;;;;;;;;;;4955446;29;20945;-73
2023/01/17 16:09:20;;;;;;;1999.90;999.90;;;;;;;;;;4936319;29;20223;-73
2023/01/17 16:12:05;;;;;;;1999.90;999.90;;;;;;;;;;4944994;29;20217;-73
2023/01/17 16:14:49;;;;;;;1999.90;999.90;;;;;;;;;;4954395;29;20295;-72
2023/01/17 16:17:35;;;;;;;1999.90;999.90;;;;;;;;;;4954783;29;20454;-73
2023/01/17 16:20:21;;;;;;;1999.90;999.90;;;;;;;;;;4955377;29;20538;-73
2023/01/17 16:23:09;;;;;;;1999.90;999.90;;;;;;;;;;4952254;28;20623;-72
2023/01/17 16:25:54;;;;;;;1999.90;999.90;;;;;;;;;;4954874;29;21088;-73
2023/01/17 16:28:38;;;;;;;1999.90;999.90;;;;;;;;;;4954705;29;20484;-72
2023/01/17 16:31:23;;;;;;;1999.90;999.90;;;;;;;;;;4954597;29;20648;-74
2023/01/17 16:34:11;;;;;;;1999.90;999.90;;;;;;;;;;4955179;28;20303;-72
2023/01/17 16:36:56;;;;;;;1999.90;999.90;;;;;;;;;;4954332;29;20248;-73
2023/01/17 16:39:42;;;;;;;1999.90;999.90;;;;;;;;;;4954741;29;20331;-74
2023/01/17 16:42:27;;;;;;;1999.90;999.90;;;;;;;;;;4954793;28;20224;-72
2023/01/17 16:45:12;;;;;;;1999.90;999.90;;;;;;;;;;4954731;29;20209;-74
2023/01/17 16:47:57;;;;;;;1999.90;999.90;;;;;;;;;;4953185;29;20445;-74
2023/01/17 16:50:46;;;;;;;1999.90;999.90;;;;;;;;;;4954414;29;20210;-71
2023/01/17 16:53:31;;;;;;;1999.90;999.90;;;;;;;;;;4957001;28;20559;-72
2023/01/17 16:56:18;;;;;;;1999.90;999.90;;;;;;;;;;4956596;29;20215;-73
2023/01/17 16:59:03;;;;;;;1999.90;999.90;;;;;;;;;;4957509;29;20430;-72
2023/01/17 17:01:49;;;;;;;1999.90;999.90;;;;;;;;;;4956942;29;20493;-73
2023/01/17 17:04:34;;;;;;;1999.90;999.90;;;;;;;;;;4953835;28;20192;-73
2023/01/17 17:07:18;;;;;;;1999.90;999.90;;;;;;;;;;4954289;29;20299;-72
2023/01/17 17:10:04;;;;;;;1999.90;999.90;;;;;;;;;;4954057;29;20212;-72
2023/01/17 17:12:50;;;;;;;1999.90;999.90;;;;;;;;;;4952432;28;20826;-71
2023/01/17 17:15:40;;;;;;;1999.90;999.90;;;;;;;;;;4952222;29;20493;-71
2023/01/17 17:18:25;;;;;;;1999.90;999.90;;;;;;;;;;4954105;29;20748;-72
2023/01/17 17:21:11;;;;;;;1999.90;999.90;;;;;;;;;;4953973;29;20240;-71
2023/01/17 17:23:57;;;;;;;1999.90;999.90;;;;;;;;;;4954140;28;21072;-72
2023/01/17 17:26:43;;;;;;;1999.90;999.90;;;;;;;;;;4954182;29;20205;-73
2023/01/17 17:29:29;;;;;;;1999.90;999.90;;;;;;;;;;4954119;29;20788;-71
2023/01/17 17:32:14;;;;;;;1999.90;999.90;;;;;;;;;;4953883;28;20498;-75
2023/01/17 17:34:59;;;;;;;1999.90;999.90;;;;;;;;;;4953193;29;20721;-72
2023/01/17 17:37:44;;;;;;;1999.90;999.90;;;;;;;;;;4944360;29;20485;-71
2023/01/17 17:40:29;;;;;;;1999.90;999.90;;;;;;;;;;4953570;29;20206;-71
2023/01/17 17:43:14;;;;;;;1999.90;999.90;;;;;;;;;;4954075;28;20461;-72
2023/01/17 17:46:00;;;;;;;1999.90;999.90;;;;;;;;;;4949319;29;20433;-70
2023/01/17 17:48:44;;;;;;;1999.90;999.90;;;;;;;;;;4953426;29;20434;-71
2023/01/17 17:51:30;;;;;;;1999.90;999.90;;;;;;;;;;4952901;29;20437;-72
2023/01/17 17:54:16;;;;;;;1999.90;999.90;;;;;;;;;;4953022;28;20471;-72
2023/01/17 17:57:01;;;;;;;1999.90;999.90;;;;;;;;;;4952819;29;20441;-72
2023/01/17 17:59:46;;;;;;;1999.90;999.90;;;;;;;;;;4953083;29;20524;-72
2023/01/17 18:02:32;;;;;;;1999.90;999.90;;;;;;;;;;4950391;28;20542;-72
2023/01/17 18:05:17;;;;;;;1999.90;999.90;;;;;;;;;;4951794;29;20464;-72
2023/01/17 18:08:02;;;;;;;1999.90;999.90;;;;;;;;;;4953276;29;20437;-72
2023/01/17 18:10:47;;;;;;;1999.90;999.90;;;;;;;;;;4953940;29;20426;-72
2023/01/17 18:13:32;;;;;;;1999.90;999.90;;;;;;;;;;4953640;28;20799;-72
2023/01/17 18:16:18;;;;;;;1999.90;999.90;;;;;;;;;;4954879;28;20415;-72
2023/01/17 18:19:05;;;;;;;1999.90;999.90;;;;;;;;;;4957379;29;20441;-72
2023/01/17 18:21:50;;;;;;;1999.90;999.90;;;;;;;;;;4956843;29;20471;-71
2023/01/17 18:24:36;;;;;;;1999.90;999.90;;;;;;;;;;4957062;29;20531;-72
2023/01/17 18:27:20;;;;;;;1999.90;999.90;;;;;;;;;;4952981;28;20455;-71
2023/01/17 18:30:06;;;;;;;1999.90;999.90;;;;;;;;;;4956981;29;20712;-72
2023/01/17 18:32:51;;;;;;;1999.90;999.90;;;;;;;;;;4956967;28;20446;-72
2023/01/17 18:35:37;;;;;;;1999.90;999.90;;;;;;;;;;4956550;29;20476;-72
2023/01/17 18:38:36;;;;;;;1999.90;999.90;;;;;;;;;;4957005;29;20421;-72
2023/01/17 18:41:23;;;;;;;1999.90;999.90;;;;;;;;;;4956967;29;20834;-72
2023/01/17 18:44:08;;;;;;;1999.90;999.90;;;;;;;;;;4956758;28;20443;-71
2023/01/17 18:46:53;;;;;;;1999.90;999.90;;;;;;;;;;4954494;28;20442;-72
2023/01/17 18:49:38;;;;;;;1999.90;999.90;;;;;;;;;;4956051;28;20425;-72
2023/01/17 18:52:25;;;;;;;1999.90;999.90;;;;;;;;;;4959543;28;20779;-72
2023/01/17 18:55:10;;;;;;;1999.90;999.90;;;;;;;;;;4954331;28;20444;-71
2023/01/17 18:57:55;;;;;;;1999.90;999.90;;;;;;;;;;4965068;28;20215;-72
2023/01/17 19:00:40;;;;;;;1999.90;999.90;;;;;;;;;;4958408;28;20433;-72
2023/01/17 19:03:27;;;;;;;1999.90;999.90;;;;;;;;;;4955874;28;20524;-72
2023/01/17 19:06:15;;;;;;;1999.90;999.90;;;;;;;;;;4967269;28;20412;-71
2023/01/17 19:09:01;;;;;;;1999.90;999.90;;;;;;;;;;4972113;28;20423;-71
2023/01/17 19:11:46;;;;;;;1999.90;999.90;;;;;;;;;;4963970;28;20423;-71
2023/01/17 19:14:31;;;;;;;1999.90;999.90;;;;;;;;;;4968770;28;20559;-72
2023/01/17 19:17:17;;;;;;;1999.90;999.90;;;;;;;;;;4960848;28;20417;-71
2023/01/17 19:20:02;;;;;;;1999.90;999.90;;;;;;;;;;4966918;28;20425;-72
2023/01/17 19:22:47;;;;;;;1999.90;999.90;;;;;;;;;;4960526;28;20461;-72
2023/01/17 19:25:35;;;;;;;1999.90;999.90;;;;;;;;;;4955027;28;20511;-71
2023/01/17 19:28:20;;;;;;;1999.90;999.90;;;;;;;;;;4956759;28;20437;-71
2023/01/17 19:31:05;;;;;;;1999.90;999.90;;;;;;;;;;4954862;28;20415;-72
2023/01/17 19:33:52;;;;;;;1999.90;999.90;;;;;;;;;;4958278;28;20514;-72
2023/01/17 19:36:37;;;;;;;1999.90;999.90;;;;;;;;;;4969625;28;20526;-68
2023/01/17 19:39:24;;;;;;;1999.90;999.90;;;;;;;;;;4959289;28;20436;-70
2023/01/17 19:42:14;;;;;;;1999.90;999.90;;;;;;;;;;4952263;28;20420;-72
2023/01/17 19:44:59;;;;;;;1999.90;999.90;;;;;;;;;;4955943;28;20420;-72
2023/01/17 19:47:44;;;;;;;1999.90;999.90;;;;;;;;;;4954385;28;20417;-72
2023/01/17 19:50:29;;;;;;;1999.90;999.90;;;;;;;;;;4962202;28;20519;-71
2023/01/17 19:53:14;;;;;;;1999.90;999.90;;;;;;;;;;4960547;28;20514;-72
2023/01/17 19:55:59;;;;;;;1999.90;999.90;;;;;;;;;;4964073;28;20470;-71
2023/01/17 19:58:45;;;;;;;1999.90;999.90;;;;;;;;;;4954002;28;20442;-71
2023/01/17 20:01:31;;;;;;;1999.90;999.90;;;;;;;;;;4955275;28;20427;-72